createdAt,value
2022-11-17T00:01:20.974Z,99666.50
2022-11-17T00:04:08.507Z,99664.84
2022-11-17T00:06:56.987Z,99673.31
2022-11-17T00:09:44.436Z,99668.13
2022-11-17T00:12:50.468Z,99667.28
2022-11-17T00:15:37.928Z,99662.56
2022-11-17T00:18:43.944Z,99660.94
2022-11-17T00:21:31.849Z,99659.34
2022-11-17T00:24:19.194Z,99655.13
2022-11-17T00:27:06.614Z,99650.03
2022-11-17T00:29:54.004Z,99646.59
2022-11-17T00:33:00.196Z,99650.75
2022-11-17T00:35:54.213Z,99640.66
2022-11-17T00:38:41.632Z,99636.56
2022-11-17T00:41:29.075Z,99641.66
2022-11-17T00:44:16.499Z,99637.50
2022-11-17T00:47:03.868Z,99633.41
2022-11-17T00:49:51.257Z,99635.84
2022-11-17T00:52:38.620Z,99627.09
2022-11-17T00:55:26.205Z,99632.91
2022-11-17T00:58:13.615Z,99624.56
2022-11-17T01:01:01.364Z,99620.19
2022-11-17T01:03:48.847Z,99622.63
2022-11-17T01:06:37.958Z,99625.91
2022-11-17T01:09:25.402Z,99611.44
2022-11-17T01:12:12.820Z,99608.78
2022-11-17T01:15:00.161Z,99616.31
2022-11-17T01:17:47.567Z,99608.69
2022-11-17T01:20:34.955Z,99601.03
2022-11-17T01:23:22.375Z,99596.66
2022-11-17T01:26:11.511Z,99592.19
2022-11-17T01:28:59.666Z,99589.56
2022-11-17T01:31:49.851Z,99584.47
2022-11-17T01:34:37.200Z,99586.81
2022-11-17T01:37:24.594Z,99585.81
2022-11-17T01:40:13.480Z,99584.78
2022-11-17T01:43:00.827Z,99585.50
2022-11-17T01:45:48.378Z,99573.78
2022-11-17T01:48:35.770Z,99575.50
2022-11-17T01:51:23.545Z,99567.84
2022-11-17T01:54:13.247Z,99576.13
2022-11-17T01:57:04.057Z,99565.44
2022-11-17T01:59:54.191Z,99570.53
2022-11-17T02:02:42.631Z,99573.28
2022-11-17T02:05:38.295Z,99573.28
2022-11-17T02:08:28.033Z,99572.16
2022-11-17T02:11:17.716Z,99563.38
2022-11-17T02:14:05.487Z,99561.66
2022-11-17T02:16:52.844Z,99563.22
2022-11-17T02:19:41.058Z,99560.84
2022-11-17T02:22:47.294Z,99556.84
2022-11-17T02:25:34.667Z,99553.41
2022-11-17T02:28:25.037Z,99560.31
2022-11-17T02:31:15.380Z,99553.69
2022-11-17T02:34:22.737Z,99552.69
2022-11-17T02:37:17.731Z,99546.66
2022-11-17T02:40:16.299Z,99543.19
2022-11-17T02:43:26.417Z,99536.44
2022-11-17T02:46:20.019Z,99539.44
2022-11-17T02:49:12.345Z,99532.06
2022-11-17T02:52:00.418Z,99527.56
2022-11-17T02:54:47.777Z,99526.34
2022-11-17T02:57:36.303Z,99522.19
2022-11-17T03:00:23.818Z,99517.28
2022-11-17T03:03:27.013Z,99516.38
2022-11-17T03:06:22.327Z,99523.09
2022-11-17T03:09:21.592Z,99514.22
2022-11-17T03:12:08.932Z,99518.94
2022-11-17T03:15:11.695Z,99518.75
2022-11-17T03:17:59.627Z,99517.19
2022-11-17T03:20:57.453Z,99512.00
2022-11-17T03:23:54.771Z,99512.31
2022-11-17T03:26:45.045Z,99505.47
2022-11-17T03:29:34.161Z,99504.56
2022-11-17T03:32:23.475Z,99496.31
2022-11-17T03:35:17.109Z,99497.09
2022-11-17T03:38:08.018Z,99504.34
2022-11-17T03:40:57.908Z,99499.53
2022-11-17T03:43:48.560Z,99491.72
2022-11-17T03:46:38.416Z,99494.53
2022-11-17T03:49:44.964Z,99491.59
2022-11-17T03:52:33.415Z,99492.53
2022-11-17T03:55:26.825Z,99486.00
2022-11-17T03:58:16.960Z,99487.31
2022-11-17T04:01:05.782Z,99486.28
2022-11-17T04:03:53.317Z,99485.38
2022-11-17T04:06:40.729Z,99486.88
2022-11-17T04:09:28.109Z,99484.25
2022-11-17T04:12:33.957Z,99486.81
2022-11-17T04:15:39.756Z,99486.88
2022-11-17T04:18:27.292Z,99487.72
2022-11-17T04:21:14.732Z,99472.41
2022-11-17T04:24:02.156Z,99473.84
2022-11-17T04:27:08.203Z,99470.97
2022-11-17T04:29:55.646Z,99477.41
2022-11-17T04:32:43.241Z,99470.53
2022-11-17T04:35:31.017Z,99469.53
2022-11-17T04:48:11.181Z,99473.41
2022-11-17T04:50:59.040Z,99472.47
2022-11-17T04:53:47.336Z,99469.03
2022-11-17T04:56:35.390Z,99461.97
2022-11-17T04:59:23.558Z,99466.84
2022-11-17T05:02:11.358Z,99468.28
2022-11-17T05:04:59.522Z,99474.00
2022-11-17T05:07:47.331Z,99474.94
2022-11-17T05:10:53.777Z,99475.22
2022-11-17T05:13:41.482Z,99477.88
2022-11-17T05:16:48.417Z,99470.94
2022-11-17T05:19:37.682Z,99475.63
2022-11-17T05:22:44.746Z,99475.97
2022-11-17T05:25:32.703Z,99475.47
2022-11-17T05:28:20.611Z,99468.94
2022-11-17T05:31:09.416Z,99467.09
2022-11-17T05:33:58.033Z,99472.31
2022-11-17T05:36:46.321Z,99469.34
2022-11-17T05:39:34.304Z,99469.34
2022-11-17T05:42:24.620Z,99471.34
2022-11-17T05:45:17.957Z,99469.31
2022-11-17T05:48:06.041Z,99468.09
2022-11-17T05:50:54.636Z,99462.19
2022-11-17T05:53:42.496Z,99468.91
2022-11-17T05:56:32.237Z,99471.47
2022-11-17T05:59:39.528Z,99471.34
2022-11-17T06:02:33.064Z,99471.59
2022-11-17T06:05:25.689Z,99474.13
2022-11-17T06:08:14.550Z,99468.22
2022-11-17T06:11:02.620Z,99475.84
2022-11-17T06:13:50.849Z,99472.00
2022-11-17T06:16:41.710Z,99470.69
2022-11-17T06:19:33.619Z,99467.53
2022-11-17T06:22:21.732Z,99465.88
2022-11-17T06:25:12.365Z,99467.81
2022-11-17T06:28:05.034Z,99468.75
2022-11-17T06:30:54.278Z,99472.31
2022-11-17T06:33:43.049Z,99478.44
2022-11-17T06:36:32.427Z,99478.53
2022-11-17T06:39:20.546Z,99466.13
2022-11-17T06:42:08.954Z,99475.50
2022-11-17T06:44:57.199Z,99476.38
2022-11-17T06:47:45.341Z,99476.59
2022-11-17T06:50:35.173Z,99478.34
2022-11-17T06:53:23.729Z,99479.47
2022-11-17T06:56:14.084Z,99479.56
2022-11-17T06:59:07.563Z,99478.56
2022-11-17T07:01:58.384Z,99478.56
2022-11-17T07:04:48.157Z,99480.78
2022-11-17T07:07:37.445Z,99478.22
2022-11-17T07:10:25.826Z,99472.22
2022-11-17T07:13:16.353Z,99483.53
2022-11-17T07:16:05.940Z,99486.81
2022-11-17T07:18:53.834Z,99480.38
2022-11-17T07:21:41.901Z,99483.53
2022-11-17T07:24:29.882Z,99476.94
2022-11-17T07:27:17.806Z,99480.47
2022-11-17T07:30:06.045Z,99485.47
2022-11-17T07:32:54.976Z,99478.53
2022-11-17T07:35:43.045Z,99484.34
2022-11-17T07:38:35.716Z,99482.13
2022-11-17T07:41:24.166Z,99484.16
2022-11-17T07:44:12.569Z,99481.72
2022-11-17T07:47:01.331Z,99484.53
2022-11-17T07:49:51.506Z,99485.47
2022-11-17T07:52:41.645Z,99478.53
2022-11-17T07:55:29.843Z,99480.59
2022-11-17T07:58:17.876Z,99484.03
2022-11-17T08:01:15.734Z,99492.63
2022-11-17T08:04:05.864Z,99492.81
2022-11-17T08:06:53.951Z,99489.78
2022-11-17T08:09:47.841Z,99484.44
2022-11-17T08:12:36.071Z,99475.56
2022-11-17T08:15:24.475Z,99478.06
2022-11-17T08:18:13.176Z,99481.22
2022-11-17T08:21:08.061Z,99481.13
2022-11-17T08:23:56.596Z,99473.16
2022-11-17T08:26:44.613Z,99470.88
2022-11-17T08:29:34.798Z,99476.91
2022-11-17T08:32:28.590Z,99472.09
2022-11-17T08:35:17.494Z,99468.59
2022-11-17T08:38:08.323Z,99467.47
2022-11-17T08:40:56.960Z,99472.97
2022-11-17T08:43:44.852Z,99472.00
2022-11-17T08:46:36.359Z,99466.94
2022-11-17T08:49:24.357Z,99469.84
2022-11-17T08:55:14.095Z,99457.78
2022-11-17T08:58:02.193Z,99457.78
2022-11-17T09:00:50.329Z,99455.34
2022-11-17T09:03:38.909Z,99451.72
2022-11-17T09:06:29.217Z,99450.06
2022-11-17T09:09:17.508Z,99457.63
2022-11-17T09:12:05.638Z,99460.41
2022-11-17T09:14:53.815Z,99457.94
2022-11-17T09:17:43.818Z,99447.75
2022-11-17T09:20:32.204Z,99450.13
2022-11-17T09:23:19.974Z,99456.00
2022-11-17T09:26:12.528Z,99456.63
2022-11-17T09:29:06.652Z,99446.63
2022-11-17T09:31:55.649Z,99441.81
2022-11-17T09:34:44.443Z,99446.31
2022-11-17T09:37:33.688Z,99444.16
2022-11-17T09:40:25.314Z,99446.38
2022-11-17T09:43:27.414Z,99431.69
2022-11-17T09:46:20.559Z,99438.31
2022-11-17T09:49:14.578Z,99445.31
2022-11-17T09:52:07.225Z,99440.91
2022-11-17T09:54:57.069Z,99442.66
2022-11-17T09:57:50.864Z,99435.19
2022-11-17T10:00:40.722Z,99440.75
2022-11-17T10:03:32.120Z,99431.69
2022-11-17T10:06:21.669Z,99434.59
2022-11-17T10:09:25.178Z,99433.31
2022-11-17T10:12:21.179Z,99443.16
2022-11-17T10:15:34.060Z,99443.97
2022-11-17T10:18:22.057Z,99452.09
2022-11-17T10:21:11.657Z,99449.28
2022-11-17T10:23:59.881Z,99442.63
2022-11-17T10:26:49.189Z,99443.13
2022-11-17T10:29:37.361Z,99442.03
2022-11-17T10:32:26.196Z,99441.56
2022-11-17T10:35:19.324Z,99436.06
2022-11-17T10:38:18.167Z,99451.66
2022-11-17T10:41:13.768Z,99437.97
2022-11-17T10:44:03.958Z,99434.63
2022-11-17T10:47:01.753Z,99432.19
2022-11-17T10:50:05.535Z,99437.31
2022-11-17T10:52:55.690Z,99437.88
2022-11-17T10:55:46.345Z,99450.28
2022-11-17T10:58:55.842Z,99438.44
2022-11-17T11:01:45.517Z,99435.19
2022-11-17T11:04:39.613Z,99444.16
2022-11-17T11:07:28.501Z,99439.63
2022-11-17T11:10:30.079Z,99436.38
2022-11-17T11:13:24.208Z,99436.03
2022-11-17T11:16:12.454Z,99444.44
2022-11-17T11:19:02.337Z,99437.88
2022-11-17T11:21:53.481Z,99446.34
2022-11-17T11:24:42.430Z,99445.25
2022-11-17T11:27:36.609Z,99439.88
2022-11-17T11:30:25.142Z,99445.31
2022-11-17T11:33:27.912Z,99441.94
2022-11-17T11:36:24.705Z,99444.06
2022-11-17T11:39:31.880Z,99439.16
2022-11-17T11:42:24.965Z,99437.03
2022-11-17T11:45:42.699Z,99446.78
2022-11-17T11:48:50.333Z,99443.50
2022-11-17T11:51:39.576Z,99441.88
2022-11-17T11:54:33.147Z,99441.66
2022-11-17T11:57:31.470Z,99447.25
2022-11-17T12:00:20.148Z,99447.97
2022-11-17T12:03:26.630Z,99446.13
2022-11-17T12:06:42.480Z,99439.88
2022-11-17T12:09:38.649Z,99442.97
2022-11-17T12:12:35.795Z,99442.69
2022-11-17T12:15:23.640Z,99449.69
2022-11-17T12:18:17.405Z,99444.41
2022-11-17T12:21:11.801Z,99443.41
2022-11-17T12:24:00.082Z,99450.75
2022-11-17T12:26:48.059Z,99451.88
2022-11-17T12:29:46.076Z,99444.44
2022-11-17T12:32:52.938Z,99445.97
2022-11-17T12:35:43.975Z,99447.94
2022-11-17T12:38:32.007Z,99449.16
2022-11-17T12:41:38.687Z,99451.94
2022-11-17T12:44:34.129Z,99454.06
2022-11-17T12:47:23.576Z,99456.69
2022-11-17T12:50:18.218Z,99454.16
2022-11-17T12:53:19.313Z,99457.19
2022-11-17T12:56:12.746Z,99465.34
2022-11-17T12:59:15.865Z,99463.69
2022-11-17T13:02:26.913Z,99459.41
2022-11-17T13:05:24.104Z,99461.69
2022-11-17T13:08:20.340Z,99471.88
2022-11-17T13:11:17.543Z,99474.19
2022-11-17T13:14:14.110Z,99474.69
2022-11-17T13:17:03.068Z,99474.97
2022-11-17T13:20:03.053Z,99476.91
2022-11-17T13:23:06.813Z,99478.28
2022-11-17T13:26:11.741Z,99484.59
2022-11-17T13:29:05.643Z,99477.72
2022-11-17T13:32:13.192Z,99482.13
2022-11-17T13:35:01.892Z,99479.78
2022-11-17T13:38:21.997Z,99483.09
2022-11-17T13:41:14.468Z,99480.19
2022-11-17T13:44:03.302Z,99478.66
2022-11-17T13:46:51.398Z,99475.41
2022-11-17T13:49:39.837Z,99487.19
2022-11-17T13:52:40.555Z,99487.06
2022-11-17T14:04:23.006Z,99485.22
2022-11-17T14:07:12.217Z,99485.63
2022-11-17T14:10:18.742Z,99486.88
2022-11-17T14:13:06.407Z,99489.84
2022-11-17T14:15:56.182Z,99485.75
2022-11-17T14:18:43.592Z,99491.72
2022-11-17T14:21:31.871Z,99486.91
2022-11-17T14:24:19.238Z,99492.94
2022-11-17T14:27:33.256Z,99487.41
2022-11-17T14:30:20.721Z,99491.00
2022-11-17T14:33:13.416Z,99494.78
2022-11-17T14:36:01.282Z,99495.00
2022-11-17T14:38:48.808Z,99488.47
2022-11-17T14:41:36.294Z,99493.72
2022-11-17T14:44:23.903Z,99481.16
2022-11-17T14:47:11.498Z,99488.22
2022-11-17T14:49:58.880Z,99497.78
2022-11-17T14:52:46.446Z,99483.53
2022-11-17T14:55:34.074Z,99484.47
2022-11-17T14:58:21.562Z,99492.72
2022-11-17T15:01:16.038Z,99487.06
2022-11-17T15:04:27.308Z,99492.47
2022-11-17T15:07:12.490Z,99492.78
2022-11-17T15:10:00.248Z,99487.06
2022-11-17T15:12:47.726Z,99481.47
2022-11-17T15:15:35.155Z,99495.19
2022-11-17T15:38:37.976Z,99482.66
2022-11-17T15:42:08.071Z,99481.19
2022-11-17T16:23:34.965Z,99485.19
2022-11-17T16:27:13.273Z,99480.19
2022-11-17T16:30:35.704Z,99472.53
2022-11-17T17:20:13.260Z,99456.47
2022-11-17T17:23:22.096Z,99459.09
2022-11-17T17:26:14.826Z,99449.66
2022-11-17T17:29:06.949Z,99448.69
2022-11-17T17:31:55.716Z,99445.97
2022-11-17T17:34:47.697Z,99448.97
2022-11-17T17:37:36.503Z,99449.63
2022-11-17T17:40:25.644Z,99451.97
2022-11-17T17:43:14.407Z,99446.25
2022-11-17T17:46:12.826Z,99446.09
2022-11-17T17:49:04.102Z,99445.47
2022-11-17T17:51:52.323Z,99430.56
2022-11-17T17:54:42.943Z,99440.00
2022-11-17T17:57:33.899Z,99444.06
2022-11-17T18:00:22.119Z,99443.91
2022-11-17T18:07:54.364Z,99441.28
2022-11-17T18:10:41.784Z,99447.81
2022-11-17T18:13:30.126Z,99447.47
2022-11-17T18:20:07.592Z,99445.38
2022-11-17T18:22:57.667Z,99437.66
2022-11-17T18:25:48.147Z,99446.22
2022-11-17T18:28:36.072Z,99442.03
2022-11-17T18:31:25.342Z,99446.94
2022-11-17T18:34:21.627Z,99439.41
2022-11-17T18:37:09.333Z,99445.38
2022-11-17T18:39:56.686Z,99442.19
2022-11-17T18:42:44.031Z,99440.94
2022-11-17T18:45:31.444Z,99440.72
2022-11-17T18:48:18.833Z,99437.69
2022-11-17T18:51:22.527Z,99444.88
2022-11-17T18:54:10.867Z,99443.41
2022-11-17T18:57:00.146Z,99445.19
2022-11-17T18:59:47.652Z,99445.28
2022-11-17T19:02:35.398Z,99448.31
2022-11-17T19:05:22.793Z,99446.06
2022-11-17T19:08:10.127Z,99437.94
2022-11-17T19:10:59.816Z,99437.63
2022-11-17T19:13:50.833Z,99433.25
2022-11-17T19:16:44.477Z,99435.38
2022-11-17T19:19:32.405Z,99432.44
2022-11-17T19:22:20.154Z,99426.19
2022-11-17T19:25:07.710Z,99437.50
2022-11-17T19:27:55.071Z,99421.81
2022-11-17T19:30:42.666Z,99431.50
2022-11-17T19:33:30.919Z,99421.69
2022-11-17T19:36:36.483Z,99424.81
2022-11-17T19:39:23.865Z,99417.69
2022-11-17T19:42:12.274Z,99423.28
2022-11-17T19:44:59.678Z,99414.75
2022-11-17T19:47:47.086Z,99404.47
2022-11-17T19:50:34.474Z,99406.09
2022-11-17T19:53:21.890Z,99419.19
2022-11-17T19:56:09.508Z,99408.78
2022-11-17T19:58:56.975Z,99403.28
2022-11-17T20:01:45.626Z,99413.38
2022-11-17T20:04:33.126Z,99400.59
2022-11-17T20:07:20.527Z,99411.63
2022-11-17T20:10:08.108Z,99407.47
2022-11-17T20:12:55.517Z,99404.69
2022-11-17T20:15:42.963Z,99404.69
2022-11-17T20:18:30.716Z,99407.28
2022-11-17T20:21:18.356Z,99403.88
2022-11-17T20:24:05.809Z,99402.81
2022-11-17T20:26:53.219Z,99402.63
2022-11-17T20:29:40.568Z,99404.28
2022-11-17T20:32:31.626Z,99399.53
2022-11-17T20:35:19.252Z,99400.50
2022-11-17T20:38:07.323Z,99387.91
2022-11-17T20:40:57.637Z,99382.75
2022-11-17T20:43:47.343Z,99381.28
2022-11-17T20:46:34.679Z,99377.88
2022-11-17T20:49:22.370Z,99384.47
2022-11-17T20:52:13.307Z,99377.44
2022-11-17T20:55:01.028Z,99378.19
2022-11-17T20:57:48.625Z,99375.63
2022-11-17T21:00:36.072Z,99381.59
2022-11-17T21:03:24.203Z,99373.84
2022-11-17T21:06:11.906Z,99383.63
2022-11-17T21:08:59.290Z,99367.59
2022-11-17T21:11:58.728Z,99368.03
2022-11-17T21:14:46.152Z,99365.81
2022-11-17T21:17:52.388Z,99367.97
2022-11-17T21:20:39.848Z,99366.34
2022-11-17T21:23:27.932Z,99355.19
2022-11-17T21:26:17.184Z,99356.91
2022-11-17T21:29:06.787Z,99362.78
2022-11-17T21:32:04.427Z,99363.81
2022-11-17T21:34:51.866Z,99366.34
2022-11-17T21:37:39.196Z,99362.34
2022-11-17T21:40:26.610Z,99359.72
2022-11-17T21:43:14.012Z,99365.25
2022-11-17T21:46:05.472Z,99356.00
2022-11-17T21:48:54.989Z,99359.63
2022-11-17T21:51:42.516Z,99351.13
2022-11-17T21:54:29.856Z,99360.25
2022-11-17T21:57:17.282Z,99353.72
2022-11-17T22:00:05.884Z,99355.91
2022-11-17T22:02:53.278Z,99344.81
2022-11-17T22:05:40.636Z,99341.44
2022-11-17T22:08:27.988Z,99345.69
2022-11-17T22:11:16.619Z,99350.13
2022-11-17T22:14:05.612Z,99346.75
2022-11-17T22:16:53.607Z,99347.66
2022-11-17T22:19:41.010Z,99345.31
2022-11-17T22:22:28.363Z,99342.78
2022-11-17T22:25:42.948Z,99340.97
2022-11-17T22:28:23.730Z,99341.31
2022-11-17T22:31:11.076Z,99343.94
2022-11-17T22:33:58.593Z,99350.81
2022-11-17T22:36:46.107Z,99352.66
2022-11-17T22:39:33.582Z,99348.50
2022-11-17T22:42:20.959Z,99349.44
2022-11-17T22:45:08.475Z,99355.19
2022-11-17T22:47:55.834Z,99349.44
2022-11-17T22:50:43.213Z,99347.78
2022-11-17T22:53:31.837Z,99348.94
2022-11-17T22:56:19.129Z,99345.91
2022-11-17T22:59:06.608Z,99343.63
2022-11-17T23:01:54.085Z,99331.94
2022-11-17T23:04:41.461Z,99338.38
2022-11-17T23:07:28.989Z,99333.81
2022-11-17T23:10:16.562Z,99332.75
2022-11-17T23:13:04.245Z,99332.47
2022-11-17T23:15:51.639Z,99334.13
2022-11-17T23:18:39.095Z,99328.41
2022-11-17T23:21:26.491Z,99327.41
2022-11-17T23:24:14.828Z,99323.16
2022-11-17T23:27:02.268Z,99330.75
2022-11-17T23:29:49.987Z,99326.44
2022-11-17T23:32:37.375Z,99314.63
2022-11-17T23:35:24.849Z,99305.31
2022-11-17T23:38:12.238Z,99315.72
2022-11-17T23:41:00.462Z,99299.16
2022-11-17T23:43:51.562Z,99289.00
2022-11-17T23:46:39.009Z,99286.47
2022-11-17T23:49:26.445Z,99288.31
2022-11-17T23:52:13.832Z,99282.53
2022-11-17T23:55:01.376Z,99280.16
2022-11-17T23:57:53.149Z,99281.97
